createdAt,value
2017-10-27T00:02:36.984Z,81.79
2017-10-27T00:08:40.490Z,81.86
2017-10-27T00:14:44.243Z,82.12
2017-10-27T00:20:47.934Z,82.05
2017-10-27T00:26:51.821Z,82.49
2017-10-27T00:32:55.323Z,82.26
2017-10-27T00:38:58.816Z,82.83
2017-10-27T00:45:02.293Z,83.82
2017-10-27T00:51:05.896Z,84.27
2017-10-27T00:57:10.292Z,84.45
2017-10-27T01:03:14.620Z,84.85
2017-10-27T01:09:18.807Z,85.22
2017-10-27T01:15:23.065Z,85.57
2017-10-27T01:21:26.634Z,86.00
2017-10-27T01:27:30.109Z,85.79
2017-10-27T01:33:34.333Z,86.67
2017-10-27T01:39:37.891Z,86.05
2017-10-27T01:45:41.348Z,85.65
2017-10-27T01:51:44.799Z,85.74
2017-10-27T01:57:48.846Z,86.00
2017-10-27T02:03:52.615Z,86.77
2017-10-27T02:09:56.459Z,86.75
2017-10-27T02:16:00.098Z,86.74
2017-10-27T02:22:03.778Z,86.84
2017-10-27T02:28:07.238Z,86.33
2017-10-27T02:34:10.874Z,86.25
2017-10-27T02:40:14.609Z,85.81
2017-10-27T02:46:18.480Z,85.42
2017-10-27T02:52:22.861Z,85.39
2017-10-27T02:58:26.349Z,85.70
2017-10-27T03:04:29.829Z,85.77
2017-10-27T03:10:34.233Z,86.26
2017-10-27T03:16:38.057Z,85.44
2017-10-27T03:22:42.070Z,86.01
2017-10-27T03:28:46.512Z,85.59
2017-10-27T03:34:50.117Z,85.50
2017-10-27T03:40:53.853Z,85.35
2017-10-27T03:46:58.109Z,85.30
2017-10-27T03:53:02.114Z,85.10
2017-10-27T03:59:05.715Z,85.56
2017-10-27T04:05:09.351Z,85.28
2017-10-27T04:11:13.173Z,84.87
2017-10-27T04:17:17.441Z,85.22
2017-10-27T04:23:21.937Z,84.78
2017-10-27T04:29:25.860Z,84.93
2017-10-27T04:35:29.393Z,84.04
2017-10-27T04:41:33.170Z,84.14
2017-10-27T04:47:36.718Z,84.52
2017-10-27T04:53:40.593Z,85.21
2017-10-27T04:59:44.095Z,84.86
2017-10-27T05:05:47.851Z,85.99
2017-10-27T05:11:51.601Z,85.82
2017-10-27T05:18:01.299Z,86.19
2017-10-27T05:24:11.467Z,85.13
2017-10-27T05:30:16.260Z,85.28
2017-10-27T05:36:19.845Z,85.03
2017-10-27T05:42:24.074Z,84.67
2017-10-27T05:48:27.928Z,84.63
2017-10-27T05:54:31.481Z,84.43
2017-10-27T06:00:34.993Z,85.38
2017-10-27T06:06:39.259Z,85.87
2017-10-27T06:12:43.557Z,86.51
2017-10-27T06:18:48.181Z,87.43
2017-10-27T06:24:52.045Z,86.51
2017-10-27T06:30:55.823Z,86.17
2017-10-27T06:37:00.085Z,85.51
2017-10-27T06:43:03.568Z,85.25
2017-10-27T06:49:07.038Z,85.02
2017-10-27T06:55:10.617Z,84.64
2017-10-27T07:01:14.549Z,85.49
2017-10-27T07:07:18.045Z,85.67
2017-10-27T07:13:21.544Z,84.87
2017-10-27T07:19:25.823Z,84.41
2017-10-27T07:25:30.046Z,84.15
2017-10-27T07:31:33.514Z,83.89
2017-10-27T07:37:36.973Z,82.60
2017-10-27T07:43:40.446Z,82.05
2017-10-27T07:49:45.125Z,81.88
2017-10-27T07:55:49.361Z,81.77
2017-10-27T08:01:52.811Z,81.46
2017-10-27T08:07:56.379Z,81.23
2017-10-27T08:13:59.833Z,81.12
2017-10-27T08:20:03.311Z,80.33
2017-10-27T08:26:07.555Z,79.38
2017-10-27T08:32:11.009Z,79.24
2017-10-27T08:38:14.653Z,78.21
2017-10-27T08:44:18.930Z,78.89
2017-10-27T08:50:22.487Z,78.37
2017-10-27T08:56:26.354Z,77.45
2017-10-27T09:02:30.571Z,75.59
2017-10-27T09:08:34.829Z,75.81
2017-10-27T09:14:38.303Z,75.71
2017-10-27T09:20:41.960Z,74.69
2017-10-27T09:26:45.874Z,75.43
2017-10-27T09:32:49.494Z,74.95
2017-10-27T09:38:53.103Z,74.72
2017-10-27T09:44:56.692Z,73.91
2017-10-27T09:51:00.192Z,73.45
2017-10-27T09:57:04.004Z,74.40
2017-10-27T10:03:07.497Z,73.73
2017-10-27T10:09:11.514Z,72.35
2017-10-27T10:15:17.211Z,72.32
2017-10-27T10:21:20.735Z,72.13
2017-10-27T10:27:24.279Z,72.08
2017-10-27T10:33:27.898Z,71.16
2017-10-27T10:39:31.514Z,70.79
2017-10-27T10:45:34.952Z,68.90
2017-10-27T10:51:38.458Z,68.09
2017-10-27T10:57:41.894Z,68.59
2017-10-27T11:03:46.429Z,68.95
2017-10-27T11:09:49.961Z,66.93
2017-10-27T11:15:53.407Z,69.54
2017-10-27T11:21:56.860Z,68.58
2017-10-27T11:28:00.512Z,67.08
2017-10-27T11:34:03.966Z,67.81
2017-10-27T11:40:07.554Z,66.22
2017-10-27T11:46:11.172Z,65.46
2017-10-27T11:52:16.404Z,66.41
2017-10-27T11:58:20.405Z,65.93
2017-10-27T12:04:23.907Z,66.30
2017-10-27T12:10:27.441Z,66.60
2017-10-27T12:16:31.654Z,66.44
2017-10-27T12:22:35.106Z,67.77
2017-10-27T12:28:38.676Z,68.25
2017-10-27T12:34:42.187Z,68.18
2017-10-27T12:40:45.897Z,67.70
2017-10-27T12:46:49.492Z,68.56
2017-10-27T12:52:53.837Z,67.83
2017-10-27T12:58:57.320Z,67.00
2017-10-27T13:05:00.758Z,67.66
2017-10-27T13:11:05.041Z,70.30
2017-10-27T13:17:08.505Z,73.67
2017-10-27T13:23:12.034Z,75.11
2017-10-27T13:29:15.822Z,74.76
2017-10-27T13:35:19.295Z,75.05
2017-10-27T13:41:22.773Z,79.58
2017-10-27T13:47:26.284Z,81.65
2017-10-27T13:53:29.744Z,82.92
2017-10-27T13:59:33.544Z,81.63
2017-10-27T14:05:37.137Z,80.18
2017-10-27T14:11:40.602Z,80.43
2017-10-27T14:17:44.140Z,79.12
2017-10-27T14:23:49.085Z,78.83
2017-10-27T14:29:52.583Z,77.22
2017-10-27T14:35:56.146Z,77.54
2017-10-27T14:42:00.427Z,77.34
2017-10-27T14:48:04.086Z,77.07
2017-10-27T14:54:07.571Z,77.00
2017-10-27T15:00:11.664Z,77.21
2017-10-27T15:06:17.172Z,76.39
2017-10-27T15:12:20.724Z,77.41
2017-10-27T15:18:24.212Z,78.21
2017-10-27T15:24:28.617Z,78.34
2017-10-27T15:30:32.140Z,79.64
2017-10-27T15:36:36.570Z,80.23
2017-10-27T15:42:40.184Z,79.99
2017-10-27T15:48:44.542Z,79.99
2017-10-27T15:54:48.931Z,80.05
2017-10-27T16:00:52.425Z,80.29
2017-10-27T16:06:56.002Z,80.58
2017-10-27T16:12:59.457Z,81.12
2017-10-27T16:19:03.022Z,81.37
2017-10-27T16:25:07.506Z,82.09
2017-10-27T16:31:11.848Z,82.80
2017-10-27T16:37:16.105Z,82.37
2017-10-27T16:43:19.773Z,82.96
2017-10-27T16:49:23.345Z,82.70
2017-10-27T16:55:26.843Z,82.26
2017-10-27T17:01:30.448Z,82.54
2017-10-27T17:07:34.167Z,82.50
2017-10-27T17:13:38.464Z,82.33
2017-10-27T17:19:42.108Z,81.81
2017-10-27T17:25:46.617Z,81.86
2017-10-27T17:31:51.139Z,82.01
2017-10-27T17:37:54.822Z,81.86
2017-10-27T17:43:58.435Z,82.01
2017-10-27T17:50:02.825Z,82.34
2017-10-27T17:56:06.437Z,82.62
2017-10-27T18:02:09.938Z,82.93
2017-10-27T18:08:14.958Z,83.62
2017-10-27T18:14:19.406Z,84.01
2017-10-27T18:20:22.971Z,84.09
2017-10-27T18:26:26.560Z,83.59
2017-10-27T18:32:30.042Z,83.06
2017-10-27T18:38:34.340Z,83.57
2017-10-27T18:44:37.918Z,84.21
2017-10-27T18:50:41.411Z,84.89
2017-10-27T18:56:45.219Z,86.19
2017-10-27T19:02:49.143Z,87.67
2017-10-27T19:08:52.778Z,88.88
2017-10-27T19:14:56.343Z,89.41
2017-10-27T19:21:00.630Z,89.89
2017-10-27T19:27:04.900Z,90.21
2017-10-27T19:33:08.653Z,90.12
2017-10-27T19:39:13.113Z,90.80
2017-10-27T19:45:16.976Z,91.80
2017-10-27T19:51:20.481Z,91.67
2017-10-27T19:57:23.987Z,91.23
2017-10-27T20:03:27.459Z,90.87
2017-10-27T20:09:30.936Z,90.01
2017-10-27T20:15:35.175Z,88.79
2017-10-27T20:21:38.666Z,86.58
2017-10-27T20:27:42.962Z,86.31
2017-10-27T20:33:46.537Z,86.58
2017-10-27T20:39:50.061Z,86.83
2017-10-27T20:45:53.529Z,89.16
2017-10-27T20:51:57.133Z,90.87
2017-10-27T20:58:01.385Z,90.41
2017-10-27T21:04:05.000Z,90.35
2017-10-27T21:10:08.509Z,90.71
2017-10-27T21:16:12.150Z,90.68
2017-10-27T21:22:16.183Z,90.51
2017-10-27T21:28:20.007Z,90.55
2017-10-27T21:34:23.746Z,89.79
2017-10-27T21:40:27.254Z,89.08
2017-10-27T21:46:30.732Z,88.74
2017-10-27T21:52:34.250Z,87.72
2017-10-27T21:58:38.590Z,87.38
2017-10-27T22:04:42.256Z,87.18
2017-10-27T22:10:45.837Z,87.33
2017-10-27T22:16:49.510Z,85.68
2017-10-27T22:22:52.983Z,85.25
2017-10-27T22:28:56.458Z,84.77
2017-10-27T22:34:59.920Z,84.68
2017-10-27T22:41:04.381Z,83.82
2017-10-27T22:47:07.873Z,83.54
2017-10-27T22:53:12.130Z,83.28
2017-10-27T22:59:16.851Z,82.93
2017-10-27T23:05:20.412Z,82.65
2017-10-27T23:11:23.996Z,82.74
2017-10-27T23:17:27.590Z,82.13
2017-10-27T23:23:31.167Z,82.15
2017-10-27T23:29:35.419Z,82.22
2017-10-27T23:35:39.717Z,83.01
2017-10-27T23:41:43.520Z,82.85
2017-10-27T23:47:48.933Z,82.25
2017-10-27T23:53:52.746Z,81.75
2017-10-27T23:59:57.169Z,81.45
